createdAt,value
2022-11-14T17:01:41.222Z,76.25
2022-11-14T17:03:32.513Z,63.00
2022-11-14T17:05:23.083Z,70.00
2022-11-14T17:07:13.633Z,70.20
2022-11-14T17:09:04.006Z,60.20
2022-11-14T17:10:54.271Z,63.20
2022-11-14T17:12:44.696Z,59.60
2022-11-14T17:14:35.064Z,63.20
2022-11-14T17:16:25.643Z,52.20
2022-11-14T17:18:17.273Z,65.20
2022-11-14T17:20:08.598Z,64.00
2022-11-14T17:21:58.887Z,63.20
2022-11-14T17:24:01.346Z,59.00
2022-11-14T17:25:51.802Z,54.60
2022-11-14T17:27:42.084Z,50.60
2022-11-14T17:29:32.424Z,45.20
2022-11-14T17:31:22.442Z,48.60
2022-11-14T17:33:12.681Z,49.80
2022-11-14T17:35:02.964Z,59.20
2022-11-14T17:36:53.635Z,53.20
2022-11-14T17:38:43.685Z,53.40
2022-11-14T17:40:34.216Z,53.40
2022-11-14T17:42:24.396Z,54.60
2022-11-14T17:44:14.887Z,42.00
2022-11-14T17:46:05.671Z,55.00
2022-11-14T17:47:55.941Z,48.80
2022-11-14T17:49:46.326Z,55.60
2022-11-14T17:51:36.881Z,53.00
2022-11-14T17:53:27.104Z,47.80
2022-11-14T17:55:18.731Z,50.00
2022-11-14T17:57:09.092Z,45.40
2022-11-14T17:58:59.744Z,46.40
2022-11-14T18:00:50.528Z,48.80
2022-11-14T18:02:40.769Z,39.80
2022-11-14T18:04:31.894Z,43.80
2022-11-14T18:06:22.584Z,49.20
2022-11-14T18:08:12.901Z,47.00
2022-11-14T18:10:03.352Z,55.20
2022-11-14T18:11:53.897Z,44.80
2022-11-14T18:13:44.467Z,43.60
2022-11-14T18:15:34.636Z,44.40
2022-11-14T18:17:24.954Z,30.40
2022-11-14T18:19:15.192Z,45.00
2022-11-14T18:21:24.048Z,47.00
2022-11-14T18:23:14.313Z,48.00
2022-11-14T18:25:08.017Z,51.00
2022-11-14T18:26:59.224Z,51.00
2022-11-14T18:28:54.837Z,52.00
2022-11-14T18:30:55.410Z,70.60
2022-11-14T18:32:45.769Z,93.75
2022-11-14T18:34:40.754Z,73.75
2022-11-14T18:36:30.902Z,74.00
2022-11-14T18:38:20.956Z,99.00
2022-11-14T18:40:16.318Z,103.25
2022-11-14T18:42:07.476Z,100.50
2022-11-14T18:43:58.313Z,117.60
2022-11-14T18:45:48.581Z,108.40
2022-11-14T18:47:38.854Z,126.40
2022-11-14T18:49:29.145Z,136.60
2022-11-14T18:51:26.136Z,137.75
2022-11-14T18:53:16.311Z,135.75
2022-11-14T18:55:07.994Z,143.50
2022-11-14T18:56:58.027Z,162.75
2022-11-14T18:58:49.814Z,156.00
2022-11-14T19:00:40.318Z,163.25
2022-11-14T19:02:30.624Z,159.25
2022-11-14T19:04:21.147Z,145.25
2022-11-14T19:06:12.114Z,161.50
2022-11-14T19:08:02.097Z,179.50
2022-11-14T19:09:52.416Z,178.50
2022-11-14T19:12:01.627Z,168.75
2022-11-14T19:13:51.776Z,200.25
2022-11-14T19:15:42.888Z,180.25
2022-11-14T19:17:33.362Z,184.25
2022-11-14T19:19:23.894Z,188.75
2022-11-14T19:21:14.026Z,185.75
2022-11-14T19:23:04.182Z,178.75
2022-11-14T19:24:54.628Z,204.50
2022-11-14T19:26:44.897Z,195.50
2022-11-14T19:28:34.917Z,191.50
2022-11-14T19:30:25.186Z,200.25
2022-11-14T19:32:15.387Z,180.25
2022-11-14T19:34:06.022Z,199.00
2022-11-14T19:35:56.408Z,180.00
2022-11-14T19:37:46.999Z,183.75
2022-11-14T19:39:37.153Z,188.50
2022-11-14T19:41:28.261Z,188.25
2022-11-14T19:43:18.854Z,166.75
2022-11-14T19:45:09.733Z,197.50
2022-11-14T19:47:00.085Z,182.75
2022-11-14T19:48:50.529Z,163.50
2022-11-14T19:50:40.679Z,160.75
2022-11-14T19:52:30.549Z,145.25
2022-11-14T19:54:20.971Z,149.75
2022-11-14T19:56:13.200Z,162.25
2022-11-14T19:58:03.469Z,149.25
2022-11-14T19:59:53.780Z,137.75
2022-11-14T20:01:44.351Z,153.25
2022-11-14T20:03:35.386Z,151.25
2022-11-14T20:05:25.702Z,147.50
2022-11-14T20:07:15.786Z,130.50
2022-11-14T20:09:09.816Z,143.75
2022-11-14T20:11:01.740Z,153.25
2022-11-14T20:12:51.915Z,146.00
2022-11-14T20:14:41.904Z,148.75
2022-11-14T20:16:36.009Z,158.25
2022-11-14T20:18:28.772Z,159.00
2022-11-14T20:20:18.877Z,142.25
2022-11-14T20:22:09.231Z,133.25
2022-11-14T20:23:59.519Z,134.00
2022-11-14T20:25:52.893Z,149.00
2022-11-14T20:27:42.891Z,149.25
2022-11-14T20:29:33.538Z,161.25
2022-11-14T20:31:25.693Z,165.50
2022-11-14T20:33:16.061Z,162.25
2022-11-14T20:35:06.751Z,161.75
2022-11-14T20:37:10.421Z,150.00
2022-11-14T20:39:01.875Z,153.00
2022-11-14T20:40:55.535Z,161.25
2022-11-14T20:42:49.088Z,141.50
2022-11-14T20:44:39.426Z,155.00
2022-11-14T20:46:30.046Z,155.50
2022-11-14T20:48:20.361Z,149.00
2022-11-14T20:50:10.854Z,155.50
2022-11-14T20:52:04.830Z,146.25
2022-11-14T20:53:55.720Z,149.00
2022-11-14T20:55:52.637Z,149.00
2022-11-14T20:57:42.870Z,149.25
2022-11-14T20:59:33.676Z,143.50
2022-11-14T21:01:24.345Z,144.00
2022-11-14T21:03:14.659Z,143.50
2022-11-14T21:05:05.323Z,144.50
2022-11-14T21:06:55.799Z,150.00
2022-11-14T21:08:46.292Z,150.75
2022-11-14T21:10:45.807Z,141.25
2022-11-14T21:12:38.052Z,147.25
2022-11-14T21:14:29.040Z,144.00
2022-11-14T21:16:20.004Z,157.00
2022-11-14T21:18:11.157Z,153.00
2022-11-14T21:20:01.838Z,154.50
2022-11-14T21:21:52.842Z,167.00
2022-11-14T21:23:44.105Z,151.50
2022-11-14T21:25:35.641Z,147.25
2022-11-14T21:27:26.037Z,153.25
2022-11-14T21:29:16.980Z,144.00
2022-11-14T21:31:20.609Z,148.25
2022-11-14T21:33:11.248Z,140.25
2022-11-14T21:35:05.639Z,145.00
2022-11-14T21:36:59.093Z,162.00
2022-11-14T21:38:49.956Z,139.25
2022-11-14T21:40:41.801Z,128.50
2022-11-14T21:42:32.541Z,136.50
2022-11-14T21:44:23.351Z,139.75
2022-11-14T21:46:17.362Z,134.50
2022-11-14T21:48:10.559Z,135.00
2022-11-14T21:50:02.498Z,140.00
2022-11-14T21:51:53.279Z,122.25
2022-11-14T21:53:44.497Z,121.20
2022-11-14T21:55:34.804Z,95.80
2022-11-14T21:57:25.485Z,113.80
2022-11-14T21:59:19.005Z,88.25
2022-11-14T22:01:10.072Z,81.75
2022-11-14T22:03:19.211Z,108.75
2022-11-14T22:05:10.113Z,97.00
2022-11-14T22:07:07.824Z,97.50
2022-11-14T22:08:58.573Z,90.75
2022-11-14T22:10:49.017Z,84.75
2022-11-14T22:12:39.711Z,77.25
2022-11-14T22:14:30.563Z,91.25
2022-11-14T22:16:21.542Z,74.75
2022-11-14T22:18:13.458Z,80.75
2022-11-14T22:20:04.187Z,82.75
2022-11-14T22:21:54.624Z,87.50
2022-11-14T22:23:44.923Z,82.25
2022-11-14T22:25:35.249Z,73.00
2022-11-14T22:27:26.323Z,80.50
2022-11-14T22:29:16.281Z,74.25
2022-11-14T22:31:15.891Z,76.75
2022-11-14T22:33:06.282Z,71.75
2022-11-14T22:34:56.743Z,78.25
2022-11-14T22:36:47.144Z,82.50
2022-11-14T22:38:37.551Z,94.50
2022-11-14T22:40:27.958Z,98.25
2022-11-14T22:42:17.883Z,99.00
2022-11-14T22:44:08.192Z,95.75
2022-11-14T22:45:59.242Z,94.75
2022-11-14T22:47:49.253Z,182.50
2022-11-14T22:49:39.833Z,132.50
2022-11-14T22:51:30.301Z,112.20
2022-11-14T22:53:21.418Z,110.60
2022-11-14T22:55:17.681Z,115.60
2022-11-14T22:57:08.387Z,113.00
2022-11-14T22:58:59.718Z,128.20
2022-11-14T23:00:50.030Z,115.25
2022-11-14T23:02:40.182Z,115.75
2022-11-14T23:04:30.652Z,111.00
2022-11-14T23:06:21.753Z,126.00
2022-11-14T23:08:14.908Z,125.75
2022-11-14T23:10:05.382Z,120.50
2022-11-14T23:11:55.731Z,128.75
2022-11-14T23:13:47.220Z,140.75
2022-11-14T23:15:37.428Z,131.25
2022-11-14T23:17:27.823Z,134.75
2022-11-14T23:19:18.104Z,120.20
2022-11-14T23:21:16.066Z,117.60
2022-11-14T23:23:06.026Z,128.50
2022-11-14T23:24:56.623Z,122.60
2022-11-14T23:26:46.654Z,124.40
2022-11-14T23:28:36.624Z,102.20
2022-11-14T23:30:26.874Z,113.40
2022-11-14T23:32:17.118Z,112.80
2022-11-14T23:34:07.396Z,104.00
